Time,TemperatureF,DewpointF,PressureIn,WindDirection,WindDirectionDegrees,WindSpeedMPH,WindSpeedGustMPH,Humidity,HourlyPrecipIn,Conditions,Clouds,dailyrainin,SolarRadiationWatts/m^2,SoftwareType,DateUTC
2013-04-22 00:02:00,58.0,52.0,-100.00,East,92,5.0,6.0,80,0.00,,,0.00,0.000000,,2013-04-22 05:02:00,
2013-04-22 00:10:00,58.0,49.0,-100.00,East,88,5.0,9.0,72,0.00,,,0.00,0.000000,,2013-04-22 05:10:00,
2013-04-22 00:42:00,58.0,49.0,-100.00,East,88,5.0,9.0,72,0.00,,,0.00,0.000000,,2013-04-22 05:42:00,
2013-04-22 00:52:00,58.0,49.0,-100.00,East,88,5.0,9.0,72,0.00,,,0.00,0.000000,,2013-04-22 05:52:00,
2013-04-22 01:02:00,58.0,49.0,-100.00,East,88,5.0,9.0,72,0.00,,,0.00,0.000000,,2013-04-22 06:02:00,
2013-04-22 01:10:00,57.0,49.0,-100.00,ESE,113,3.0,6.0,75,0.00,,,0.00,0.000000,,2013-04-22 06:10:00,
2013-04-22 01:32:00,57.0,49.0,-100.00,ESE,113,3.0,6.0,75,0.00,,,0.00,0.000000,,2013-04-22 06:32:00,
2013-04-22 01:42:00,57.0,49.0,-100.00,ESE,113,3.0,6.0,75,0.00,,,0.00,0.000000,,2013-04-22 06:42:00,
2013-04-22 01:52:00,57.0,49.0,-100.00,ESE,113,3.0,6.0,75,0.00,,,0.00,0.000000,,2013-04-22 06:52:00,
2013-04-22 02:01:00,57.0,49.0,-100.00,ESE,113,3.0,6.0,75,0.00,,,0.00,0.000000,,2013-04-22 07:01:00,
2013-04-22 02:10:00,56.0,50.0,-100.00,SSE,166,4.0,9.0,81,0.00,,,0.00,0.000000,,2013-04-22 07:10:00,
2013-04-22 02:32:00,56.0,50.0,-100.00,SSE,166,4.0,9.0,81,0.00,,,0.00,0.000000,,2013-04-22 07:32:00,
2013-04-22 02:42:00,56.0,50.0,-100.00,SSE,166,4.0,9.0,81,0.00,,,0.00,0.000000,,2013-04-22 07:42:00,
2013-04-22 02:52:00,56.0,50.0,-100.00,SSE,166,4.0,9.0,81,0.00,,,0.00,0.000000,,2013-04-22 07:52:00,
2013-04-22 03:02:00,56.0,50.0,-100.00,SSE,166,4.0,9.0,81,0.00,,,0.00,0.000000,,2013-04-22 08:02:00,
2013-04-22 03:10:00,54.0,49.0,-100.00,SSE,152,2.0,5.0,82,0.00,,,0.00,0.000000,,2013-04-22 08:10:00,
2013-04-22 03:32:00,54.0,49.0,-100.00,SSE,152,2.0,5.0,82,0.00,,,0.00,0.000000,,2013-04-22 08:32:00,
2013-04-22 03:42:00,54.0,49.0,-100.00,SSE,152,2.0,5.0,82,0.00,,,0.00,0.000000,,2013-04-22 08:42:00,
2013-04-22 03:53:00,54.0,49.0,-100.00,SSE,152,2.0,5.0,82,0.00,,,0.00,0.000000,,2013-04-22 08:53:00,
2013-04-22 04:01:00,54.0,49.0,-100.00,SSE,152,2.0,5.0,82,0.00,,,0.00,0.000000,,2013-04-22 09:01:00,
2013-04-22 04:10:00,52.0,49.0,-100.00,SE,127,1.0,4.0,88,0.00,,,0.00,0.000000,,2013-04-22 09:10:00,
2013-04-22 04:33:00,52.0,49.0,-100.00,SE,127,1.0,4.0,88,0.00,,,0.00,0.000000,,2013-04-22 09:33:00,
2013-04-22 04:42:00,52.0,49.0,-100.00,SE,127,1.0,4.0,88,0.00,,,0.00,0.000000,,2013-04-22 09:42:00,
2013-04-22 04:52:00,52.0,49.0,-100.00,SE,127,1.0,4.0,88,0.00,,,0.00,0.000000,,2013-04-22 09:52:00,
2013-04-22 05:03:00,52.0,49.0,-100.00,SE,127,1.0,4.0,88,0.00,,,0.00,0.000000,,2013-04-22 10:03:00,
2013-04-22 05:10:00,50.0,49.0,-100.00,ENE,59,2.0,2.0,97,0.00,,,0.00,0.000000,,2013-04-22 10:10:00,
2013-04-22 05:32:00,50.0,49.0,-100.00,ENE,59,2.0,2.0,97,0.00,,,0.00,0.000000,,2013-04-22 10:32:00,
2013-04-22 05:42:00,50.0,49.0,-100.00,ENE,59,2.0,2.0,97,0.00,,,0.00,0.000000,,2013-04-22 10:42:00,
2013-04-22 05:52:00,50.0,49.0,-100.00,ENE,59,2.0,2.0,97,0.00,,,0.00,0.000000,,2013-04-22 10:52:00,
2013-04-22 06:02:00,50.0,49.0,-100.00,ENE,59,2.0,2.0,97,0.00,,,0.00,0.000000,,2013-04-22 11:02:00,
2013-04-22 06:10:00,49.0,49.0,-100.00,East,84,2.0,3.0,100,0.00,,,0.00,0.000000,,2013-04-22 11:10:00,
2013-04-22 06:42:00,49.0,49.0,-100.00,East,84,2.0,3.0,100,0.00,,,0.00,0.000000,,2013-04-22 11:42:00,
2013-04-22 06:52:00,49.0,49.0,-100.00,East,84,2.0,3.0,100,0.00,,,0.00,0.000000,,2013-04-22 11:52:00,
2013-04-22 07:02:00,49.0,49.0,-100.00,East,84,2.0,3.0,100,0.00,,,0.00,0.000000,,2013-04-22 12:02:00,
2013-04-22 08:10:00,56.0,56.0,-100.00,South,175,4.0,5.0,100,-99.99,,,0.00,144.000000,,2013-04-22 13:10:00,
2013-04-22 08:42:00,56.0,56.0,-100.00,South,175,4.0,5.0,100,-99.99,,,0.00,144.000000,,2013-04-22 13:42:00,
2013-04-22 08:53:00,56.0,56.0,-100.00,South,175,4.0,5.0,100,-99.99,,,0.00,144.000000,,2013-04-22 13:53:00,
2013-04-22 09:02:00,56.0,56.0,-100.00,South,175,4.0,5.0,100,-99.99,,,0.00,144.000000,,2013-04-22 14:02:00,
2013-04-22 09:10:00,63.0,58.0,-100.00,SSE,164,5.0,9.0,83,0.00,,,0.00,380.000000,,2013-04-22 14:10:00,
2013-04-22 09:33:00,63.0,58.0,-100.00,SSE,164,5.0,9.0,83,0.00,,,0.00,380.000000,,2013-04-22 14:33:00,
2013-04-22 09:42:00,63.0,58.0,-100.00,SSE,164,5.0,9.0,83,0.00,,,0.00,380.000000,,2013-04-22 14:42:00,
2013-04-22 09:52:00,63.0,58.0,-100.00,SSE,164,5.0,9.0,83,0.00,,,0.00,380.000000,,2013-04-22 14:52:00,
2013-04-22 10:02:00,63.0,58.0,-100.00,SSE,164,5.0,9.0,83,0.00,,,0.00,380.000000,,2013-04-22 15:02:00,
2013-04-22 10:10:00,67.0,58.0,-100.00,South,170,9.0,16.0,72,0.00,,,0.00,584.000000,,2013-04-22 15:10:00,
2013-04-22 10:33:00,67.0,58.0,-100.00,South,170,9.0,16.0,72,0.00,,,0.00,584.000000,,2013-04-22 15:33:00,
2013-04-22 10:43:00,67.0,58.0,-100.00,South,170,9.0,16.0,72,0.00,,,0.00,584.000000,,2013-04-22 15:43:00,
2013-04-22 10:53:00,67.0,58.0,-100.00,South,170,9.0,16.0,72,0.00,,,0.00,584.000000,,2013-04-22 15:53:00,
2013-04-22 11:03:00,67.0,58.0,-100.00,South,170,9.0,16.0,72,0.00,,,0.00,584.000000,,2013-04-22 16:03:00,
2013-04-22 11:10:00,71.0,59.0,-100.00,South,185,9.0,15.0,67,0.00,,,0.00,792.000000,,2013-04-22 16:10:00,
2013-04-22 11:33:00,71.0,59.0,-100.00,South,185,9.0,15.0,67,0.00,,,0.00,792.000000,,2013-04-22 16:33:00,
2013-04-22 11:42:00,71.0,59.0,-100.00,South,185,9.0,15.0,67,0.00,,,0.00,792.000000,,2013-04-22 16:42:00,
2013-04-22 11:52:00,71.0,59.0,-100.00,South,185,9.0,15.0,67,0.00,,,0.00,792.000000,,2013-04-22 16:52:00,
2013-04-22 12:02:00,71.0,59.0,-100.00,South,185,9.0,15.0,67,0.00,,,0.00,792.000000,,2013-04-22 17:02:00,
2013-04-22 12:10:00,74.0,58.0,-100.00,South,171,7.0,16.0,58,0.00,,,0.00,983.000000,,2013-04-22 17:10:00,
2013-04-22 12:32:00,74.0,58.0,-100.00,South,171,7.0,16.0,58,0.00,,,0.00,983.000000,,2013-04-22 17:32:00,
2013-04-22 12:43:00,74.0,58.0,-100.00,South,171,7.0,16.0,58,0.00,,,0.00,983.000000,,2013-04-22 17:43:00,
2013-04-22 12:52:00,74.0,58.0,-100.00,South,171,7.0,16.0,58,0.00,,,0.00,983.000000,,2013-04-22 17:52:00,
2013-04-22 13:01:00,74.0,58.0,-100.00,South,171,7.0,16.0,58,0.00,,,0.00,983.000000,,2013-04-22 18:01:00,
2013-04-22 13:10:00,77.0,59.0,-100.00,SSE,167,6.0,15.0,53,0.00,,,0.00,1075.000000,,2013-04-22 18:10:00,
2013-04-22 13:42:00,77.0,59.0,-100.00,SSE,167,6.0,15.0,53,0.00,,,0.00,1075.000000,,2013-04-22 18:42:00,
2013-04-22 13:52:00,77.0,59.0,-100.00,SSE,167,6.0,15.0,53,0.00,,,0.00,1075.000000,,2013-04-22 18:52:00,
2013-04-22 14:01:00,77.0,59.0,-100.00,SSE,167,6.0,15.0,53,0.00,,,0.00,1075.000000,,2013-04-22 19:01:00,
2013-04-22 14:10:00,78.0,58.0,-100.00,SSE,168,7.0,15.0,51,0.00,,,0.00,1077.000000,,2013-04-22 19:10:00,
2013-04-22 14:42:00,78.0,58.0,-100.00,SSE,168,7.0,15.0,51,0.00,,,0.00,1077.000000,,2013-04-22 19:42:00,
2013-04-22 14:53:00,78.0,58.0,-100.00,SSE,168,7.0,15.0,51,0.00,,,0.00,1077.000000,,2013-04-22 19:53:00,
2013-04-22 15:02:00,78.0,58.0,-100.00,SSE,168,7.0,15.0,51,0.00,,,0.00,1077.000000,,2013-04-22 20:02:00,
2013-04-22 15:10:00,79.0,58.0,-100.00,South,171,9.0,17.0,48,0.00,,,0.00,1022.000000,,2013-04-22 20:10:00,
2013-04-22 15:42:00,79.0,58.0,-100.00,South,171,9.0,17.0,48,0.00,,,0.00,1022.000000,,2013-04-22 20:42:00,
2013-04-22 15:52:00,79.0,58.0,-100.00,South,171,9.0,17.0,48,0.00,,,0.00,1022.000000,,2013-04-22 20:52:00,
2013-04-22 16:02:00,79.0,58.0,-100.00,South,171,9.0,17.0,48,0.00,,,0.00,1022.000000,,2013-04-22 21:02:00,
2013-04-22 16:10:00,81.0,59.0,-100.00,SSE,161,7.0,16.0,47,0.00,,,0.00,895.000000,,2013-04-22 21:10:00,
2013-04-22 16:33:00,81.0,59.0,-100.00,SSE,161,7.0,16.0,47,0.00,,,0.00,895.000000,,2013-04-22 21:33:00,
2013-04-22 16:43:00,81.0,59.0,-100.00,SSE,161,7.0,16.0,47,0.00,,,0.00,895.000000,,2013-04-22 21:43:00,
2013-04-22 16:53:00,81.0,59.0,-100.00,SSE,161,7.0,16.0,47,0.00,,,0.00,895.000000,,2013-04-22 21:53:00,
2013-04-22 17:03:00,81.0,59.0,-100.00,SSE,161,7.0,16.0,47,0.00,,,0.00,895.000000,,2013-04-22 22:03:00,
2013-04-22 17:10:00,81.0,58.0,-100.00,SSE,162,8.0,16.0,45,0.00,,,0.00,705.000000,,2013-04-22 22:10:00,
2013-04-22 17:42:00,81.0,58.0,-100.00,SSE,162,8.0,16.0,45,0.00,,,0.00,705.000000,,2013-04-22 22:42:00,
2013-04-22 17:52:00,81.0,58.0,-100.00,SSE,162,8.0,16.0,45,0.00,,,0.00,705.000000,,2013-04-22 22:52:00,
2013-04-22 18:02:00,81.0,58.0,-100.00,SSE,162,8.0,16.0,45,0.00,,,0.00,705.000000,,2013-04-22 23:02:00,
2013-04-22 18:10:00,81.0,58.0,-100.00,SSE,162,8.0,15.0,45,0.00,,,0.00,477.000000,,2013-04-22 23:10:00,
2013-04-22 18:33:00,81.0,58.0,-100.00,SSE,162,8.0,15.0,45,0.00,,,0.00,477.000000,,2013-04-22 23:33:00,
2013-04-22 18:42:00,81.0,58.0,-100.00,SSE,162,8.0,15.0,45,0.00,,,0.00,477.000000,,2013-04-22 23:42:00,
2013-04-22 18:52:00,81.0,58.0,-100.00,SSE,162,8.0,15.0,45,0.00,,,0.00,477.000000,,2013-04-22 23:52:00,
2013-04-22 19:02:00,81.0,58.0,-100.00,SSE,162,8.0,15.0,45,0.00,,,0.00,477.000000,,2013-04-23 00:02:00,
2013-04-22 20:10:00,74.0,56.0,-100.00,SSE,149,5.0,9.0,53,-99.99,,,0.00,41.000000,,2013-04-23 01:10:00,
2013-04-22 20:42:00,74.0,56.0,-100.00,SSE,149,5.0,9.0,53,-99.99,,,0.00,41.000000,,2013-04-23 01:42:00,
2013-04-22 20:52:00,74.0,56.0,-100.00,SSE,149,5.0,9.0,53,-99.99,,,0.00,41.000000,,2013-04-23 01:52:00,
2013-04-22 21:02:00,74.0,56.0,-100.00,SSE,149,5.0,9.0,53,-99.99,,,0.00,41.000000,,2013-04-23 02:02:00,
2013-04-22 21:10:00,70.0,56.0,-100.00,SE,130,6.0,9.0,62,0.00,,,0.00,0.000000,,2013-04-23 02:10:00,
2013-04-22 21:33:00,70.0,56.0,-100.00,SE,130,6.0,9.0,62,0.00,,,0.00,0.000000,,2013-04-23 02:33:00,
2013-04-22 21:42:00,70.0,56.0,-100.00,SE,130,6.0,9.0,62,0.00,,,0.00,0.000000,,2013-04-23 02:42:00,
2013-04-22 21:52:00,70.0,56.0,-100.00,SE,130,6.0,9.0,62,0.00,,,0.00,0.000000,,2013-04-23 02:52:00,
2013-04-22 22:01:00,70.0,56.0,-100.00,SE,130,6.0,9.0,62,0.00,,,0.00,0.000000,,2013-04-23 03:01:00,
2013-04-22 23:10:00,68.0,58.0,-100.00,SSE,152,7.0,12.0,70,-99.99,,,0.00,0.000000,,2013-04-23 04:10:00,
2013-04-22 23:33:00,68.0,58.0,-100.00,SSE,152,7.0,12.0,70,-99.99,,,0.00,0.000000,,2013-04-23 04:33:00,
2013-04-22 23:44:00,68.0,58.0,-100.00,SSE,152,7.0,12.0,70,-99.99,,,0.00,0.000000,,2013-04-23 04:44:00,
2013-04-22 23:53:00,68.0,58.0,-100.00,SSE,152,7.0,12.0,70,-99.99,,,0.00,0.000000,,2013-04-23 04:53:00,